sensor_id;sensor_type;location;lat;lon;timestamp;P1;durP1;ratioP1;P2;durP2;ratioP2
15843;SDS011;50807;52.436;13.346;2023-12-20T00:00:25;2.60;;;2.43;;
15843;SDS011;50807;52.436;13.346;2023-12-20T00:00:56;2.37;;;2.27;;
15843;SDS011;50807;52.436;13.346;2023-12-20T00:01:26;2.47;;;2.30;;
15843;SDS011;50807;52.436;13.346;2023-12-20T00:01:58;2.53;;;2.33;;
15843;SDS011;50807;52.436;13.346;2023-12-20T00:02:29;2.60;;;2.40;;
15843;SDS011;50807;52.436;13.346;2023-12-20T00:02:59;2.30;;;2.20;;
15843;SDS011;50807;52.436;13.346;2023-12-20T00:03:30;2.53;;;2.40;;
15843;SDS011;50807;52.436;13.346;2023-12-20T00:04:01;2.47;;;2.37;;
15843;SDS011;50807;52.436;13.346;2023-12-20T00:04:33;2.45;;;2.35;;
15843;SDS011;50807;52.436;13.346;2023-12-20T00:05:04;2.03;;;1.93;;
15843;SDS011;50807;52.436;13.346;2023-12-20T00:05:36;2.45;;;2.33;;
15843;SDS011;50807;52.436;13.346;2023-12-20T00:06:11;2.75;;;2.55;;
15843;SDS011;50807;52.436;13.346;2023-12-20T00:06:42;2.25;;;2.13;;
15843;SDS011;50807;52.436;13.346;2023-12-20T00:07:14;2.63;;;2.42;;
15843;SDS011;50807;52.436;13.346;2023-12-20T00:07:44;2.50;;;2.40;;
15843;SDS011;50807;52.436;13.346;2023-12-20T00:08:15;2.57;;;2.37;;
15843;SDS011;50807;52.436;13.346;2023-12-20T00:08:47;2.53;;;2.42;;
15843;SDS011;50807;52.436;13.346;2023-12-20T00:09:18;2.40;;;2.30;;
15843;SDS011;50807;52.436;13.346;2023-12-20T00:09:50;2.50;;;2.30;;
15843;SDS011;50807;52.436;13.346;2023-12-20T00:10:20;2.67;;;2.55;;
15843;SDS011;50807;52.436;13.346;2023-12-20T00:10:52;2.25;;;2.15;;
15843;SDS011;50807;52.436;13.346;2023-12-20T00:11:23;2.37;;;2.27;;
15843;SDS011;50807;52.436;13.346;2023-12-20T00:11:54;2.90;;;2.13;;
15843;SDS011;50807;52.436;13.346;2023-12-20T00:12:24;2.50;;;2.40;;
15843;SDS011;50807;52.436;13.346;2023-12-20T00:12:56;2.65;;;2.45;;
15843;SDS011;50807;52.436;13.346;2023-12-20T00:13:27;2.47;;;2.37;;
15843;SDS011;50807;52.436;13.346;2023-12-20T00:13:57;2.20;;;2.10;;
15843;SDS011;50807;52.436;13.346;2023-12-20T00:14:28;2.77;;;2.63;;
15843;SDS011;50807;52.436;13.346;2023-12-20T00:15:00;2.65;;;2.45;;
15843;SDS011;50807;52.436;13.346;2023-12-20T00:15:30;2.70;;;2.50;;
15843;SDS011;50807;52.436;13.346;2023-12-20T00:16:01;2.77;;;2.57;;
15843;SDS011;50807;52.436;13.346;2023-12-20T00:16:32;2.40;;;2.30;;
15843;SDS011;50807;52.436;13.346;2023-12-20T00:17:04;2.70;;;2.50;;
15843;SDS011;50807;52.436;13.346;2023-12-20T00:17:34;2.60;;;2.43;;
15843;SDS011;50807;52.436;13.346;2023-12-20T00:18:05;2.47;;;2.33;;
15843;SDS011;50807;52.436;13.346;2023-12-20T00:18:37;2.78;;;2.58;;
15843;SDS011;50807;52.436;13.346;2023-12-20T00:19:08;2.88;;;2.67;;
15843;SDS011;50807;52.436;13.346;2023-12-20T00:19:39;2.80;;;2.60;;
15843;SDS011;50807;52.436;13.346;2023-12-20T00:20:10;2.80;;;2.60;;
15843;SDS011;50807;52.436;13.346;2023-12-20T00:20:41;3.30;;;3.10;;
15843;SDS011;50807;52.436;13.346;2023-12-20T00:21:12;3.20;;;3.00;;
15843;SDS011;50807;52.436;13.346;2023-12-20T00:21:44;2.95;;;2.25;;
15843;SDS011;50807;52.436;13.346;2023-12-20T00:22:14;2.13;;;2.03;;
15843;SDS011;50807;52.436;13.346;2023-12-20T00:22:45;2.37;;;2.27;;
15843;SDS011;50807;52.436;13.346;2023-12-20T00:23:16;2.30;;;2.20;;
15843;SDS011;50807;52.436;13.346;2023-12-20T00:23:48;2.80;;;2.60;;
15843;SDS011;50807;52.436;13.346;2023-12-20T00:24:18;2.37;;;2.27;;
15843;SDS011;50807;52.436;13.346;2023-12-20T00:24:51;2.50;;;2.40;;
15843;SDS011;50807;52.436;13.346;2023-12-20T00:25:23;2.58;;;2.38;;
15843;SDS011;50807;52.436;13.346;2023-12-20T00:25:54;2.70;;;2.50;;
15843;SDS011;50807;52.436;13.346;2023-12-20T00:26:25;2.13;;;1.97;;
15843;SDS011;50807;52.436;13.346;2023-12-20T00:26:58;2.90;;;2.67;;
15843;SDS011;50807;52.436;13.346;2023-12-20T00:27:29;2.67;;;2.53;;
15843;SDS011;50807;52.436;13.346;2023-12-20T00:28:00;2.63;;;2.43;;
15843;SDS011;50807;52.436;13.346;2023-12-20T00:28:32;2.60;;;2.40;;
15843;SDS011;50807;52.436;13.346;2023-12-20T00:29:03;2.33;;;2.23;;
15843;SDS011;50807;52.436;13.346;2023-12-20T00:29:34;2.65;;;2.45;;
15843;SDS011;50807;52.436;13.346;2023-12-20T00:30:05;2.50;;;2.40;;
15843;SDS011;50807;52.436;13.346;2023-12-20T00:30:37;2.45;;;2.33;;
15843;SDS011;50807;52.436;13.346;2023-12-20T00:31:09;2.47;;;2.38;;
15843;SDS011;50807;52.436;13.346;2023-12-20T00:31:40;2.70;;;2.50;;
15843;SDS011;50807;52.436;13.346;2023-12-20T00:32:10;2.07;;;1.97;;
15843;SDS011;50807;52.436;13.346;2023-12-20T00:32:41;2.40;;;2.20;;
15843;SDS011;50807;52.436;13.346;2023-12-20T00:33:16;2.78;;;2.58;;
15843;SDS011;50807;52.436;13.346;2023-12-20T00:33:47;2.50;;;2.30;;
15843;SDS011;50807;52.436;13.346;2023-12-20T00:34:17;2.47;;;2.37;;
15843;SDS011;50807;52.436;13.346;2023-12-20T00:34:49;2.28;;;2.17;;
15843;SDS011;50807;52.436;13.346;2023-12-20T00:35:20;2.43;;;2.23;;
15843;SDS011;50807;52.436;13.346;2023-12-20T00:35:50;2.03;;;1.93;;
15843;SDS011;50807;52.436;13.346;2023-12-20T00:36:21;3.33;;;2.10;;
15843;SDS011;50807;52.436;13.346;2023-12-20T00:36:53;2.03;;;1.92;;
15843;SDS011;50807;52.436;13.346;2023-12-20T00:37:24;2.50;;;2.40;;
15843;SDS011;50807;52.436;13.346;2023-12-20T00:37:55;2.40;;;2.30;;
15843;SDS011;50807;52.436;13.346;2023-12-20T00:38:27;2.10;;;2.00;;
15843;SDS011;50807;52.436;13.346;2023-12-20T00:38:58;2.53;;;2.37;;
15843;SDS011;50807;52.436;13.346;2023-12-20T00:39:29;2.40;;;2.25;;
15843;SDS011;50807;52.436;13.346;2023-12-20T00:40:02;2.30;;;2.20;;
15843;SDS011;50807;52.436;13.346;2023-12-20T00:40:33;2.10;;;2.00;;
15843;SDS011;50807;52.436;13.346;2023-12-20T00:41:04;2.57;;;2.37;;
15843;SDS011;50807;52.436;13.346;2023-12-20T00:41:35;2.20;;;2.10;;
15843;SDS011;50807;52.436;13.346;2023-12-20T00:42:07;2.28;;;2.17;;
15843;SDS011;50807;52.436;13.346;2023-12-20T00:42:38;2.23;;;2.13;;
15843;SDS011;50807;52.436;13.346;2023-12-20T00:43:08;2.60;;;2.40;;
15843;SDS011;50807;52.436;13.346;2023-12-20T00:43:39;2.27;;;2.17;;
15843;SDS011;50807;52.436;13.346;2023-12-20T00:44:11;2.47;;;2.30;;
15843;SDS011;50807;52.436;13.346;2023-12-20T00:44:42;2.10;;;2.00;;
15843;SDS011;50807;52.436;13.346;2023-12-20T00:45:12;2.37;;;2.23;;
15843;SDS011;50807;52.436;13.346;2023-12-20T00:45:44;1.90;;;1.80;;
15843;SDS011;50807;52.436;13.346;2023-12-20T00:46:16;2.33;;;2.20;;
15843;SDS011;50807;52.436;13.346;2023-12-20T00:46:46;2.20;;;2.10;;
15843;SDS011;50807;52.436;13.346;2023-12-20T00:47:17;2.03;;;1.93;;
15843;SDS011;50807;52.436;13.346;2023-12-20T00:47:48;2.23;;;2.13;;
15843;SDS011;50807;52.436;13.346;2023-12-20T00:48:20;2.10;;;2.00;;
15843;SDS011;50807;52.436;13.346;2023-12-20T00:48:50;2.00;;;1.90;;
15843;SDS011;50807;52.436;13.346;2023-12-20T00:49:21;2.33;;;2.23;;
15843;SDS011;50807;52.436;13.346;2023-12-20T00:49:52;2.07;;;1.97;;
15843;SDS011;50807;52.436;13.346;2023-12-20T00:50:22;2.40;;;2.30;;
15843;SDS011;50807;52.436;13.346;2023-12-20T00:50:54;2.53;;;2.42;;
15843;SDS011;50807;52.436;13.346;2023-12-20T00:51:25;2.50;;;2.40;;
15843;SDS011;50807;52.436;13.346;2023-12-20T00:51:56;2.30;;;2.20;;
15843;SDS011;50807;52.436;13.346;2023-12-20T00:52:28;2.67;;;2.20;;
15843;SDS011;50807;52.436;13.346;2023-12-20T00:52:58;2.53;;;2.33;;
15843;SDS011;50807;52.436;13.346;2023-12-20T00:53:29;2.00;;;1.90;;
15843;SDS011;50807;52.436;13.346;2023-12-20T00:54:00;2.10;;;2.00;;
15843;SDS011;50807;52.436;13.346;2023-12-20T00:54:32;2.38;;;2.17;;
15843;SDS011;50807;52.436;13.346;2023-12-20T00:55:04;2.00;;;1.90;;
15843;SDS011;50807;52.436;13.346;2023-12-20T00:55:36;2.40;;;2.30;;
15843;SDS011;50807;52.436;13.346;2023-12-20T00:56:07;2.27;;;2.17;;
15843;SDS011;50807;52.436;13.346;2023-12-20T00:56:38;2.05;;;1.95;;
15843;SDS011;50807;52.436;13.346;2023-12-20T00:57:09;2.30;;;2.20;;
15843;SDS011;50807;52.436;13.346;2023-12-20T00:57:40;2.00;;;1.90;;
15843;SDS011;50807;52.436;13.346;2023-12-20T00:58:11;2.00;;;1.90;;
15843;SDS011;50807;52.436;13.346;2023-12-20T00:58:42;2.00;;;1.90;;
15843;SDS011;50807;52.436;13.346;2023-12-20T00:59:13;2.10;;;2.00;;
15843;SDS011;50807;52.436;13.346;2023-12-20T00:59:44;2.15;;;2.05;;
15843;SDS011;50807;52.436;13.346;2023-12-20T01:00:16;1.90;;;1.80;;
15843;SDS011;50807;52.436;13.346;2023-12-20T01:00:48;2.10;;;2.00;;
15843;SDS011;50807;52.436;13.346;2023-12-20T01:01:18;1.97;;;1.87;;
15843;SDS011;50807;52.436;13.346;2023-12-20T01:01:49;2.00;;;1.90;;
15843;SDS011;50807;52.436;13.346;2023-12-20T01:02:21;2.00;;;1.90;;
15843;SDS011;50807;52.436;13.346;2023-12-20T01:02:52;2.20;;;2.10;;
15843;SDS011;50807;52.436;13.346;2023-12-20T01:03:23;1.80;;;1.70;;
15843;SDS011;50807;52.436;13.346;2023-12-20T01:03:54;2.07;;;1.97;;
15843;SDS011;50807;52.436;13.346;2023-12-20T01:04:25;2.17;;;2.00;;
15843;SDS011;50807;52.436;13.346;2023-12-20T01:04:57;1.90;;;1.80;;
15843;SDS011;50807;52.436;13.346;2023-12-20T01:05:27;2.00;;;1.90;;
15843;SDS011;50807;52.436;13.346;2023-12-20T01:05:58;2.40;;;2.20;;
15843;SDS011;50807;52.436;13.346;2023-12-20T01:06:29;2.00;;;1.90;;
15843;SDS011;50807;52.436;13.346;2023-12-20T01:07:00;1.80;;;1.70;;
15843;SDS011;50807;52.436;13.346;2023-12-20T01:07:32;1.70;;;1.60;;
15843;SDS011;50807;52.436;13.346;2023-12-20T01:08:03;1.93;;;1.83;;
15843;SDS011;50807;52.436;13.346;2023-12-20T01:08:35;1.70;;;1.60;;
15843;SDS011;50807;52.436;13.346;2023-12-20T01:09:07;2.15;;;2.00;;
15843;SDS011;50807;52.436;13.346;2023-12-20T01:09:38;1.73;;;1.63;;
15843;SDS011;50807;52.436;13.346;2023-12-20T01:10:11;2.00;;;1.90;;
15843;SDS011;50807;52.436;13.346;2023-12-20T01:10:41;1.92;;;1.83;;
15843;SDS011;50807;52.436;13.346;2023-12-20T01:11:12;1.80;;;1.70;;
15843;SDS011;50807;52.436;13.346;2023-12-20T01:11:44;1.75;;;1.65;;
15843;SDS011;50807;52.436;13.346;2023-12-20T01:12:16;1.90;;;1.70;;
15843;SDS011;50807;52.436;13.346;2023-12-20T01:12:47;1.70;;;1.60;;
15843;SDS011;50807;52.436;13.346;2023-12-20T01:13:17;1.53;;;1.43;;
15843;SDS011;50807;52.436;13.346;2023-12-20T01:13:49;1.85;;;1.75;;
15843;SDS011;50807;52.436;13.346;2023-12-20T01:14:20;1.70;;;1.60;;
15843;SDS011;50807;52.436;13.346;2023-12-20T01:14:50;1.80;;;1.70;;
15843;SDS011;50807;52.436;13.346;2023-12-20T01:15:21;1.43;;;1.33;;
15843;SDS011;50807;52.436;13.346;2023-12-20T01:15:53;1.73;;;1.63;;
15843;SDS011;50807;52.436;13.346;2023-12-20T01:16:23;1.60;;;1.50;;
15843;SDS011;50807;52.436;13.346;2023-12-20T01:16:54;1.60;;;1.50;;
15843;SDS011;50807;52.436;13.346;2023-12-20T01:17:25;1.90;;;1.80;;
15843;SDS011;50807;52.436;13.346;2023-12-20T01:17:57;1.65;;;1.55;;
15843;SDS011;50807;52.436;13.346;2023-12-20T01:18:29;1.75;;;1.65;;
15843;SDS011;50807;52.436;13.346;2023-12-20T01:19:00;1.80;;;1.70;;
15843;SDS011;50807;52.436;13.346;2023-12-20T01:19:31;1.37;;;1.33;;
15843;SDS011;50807;52.436;13.346;2023-12-20T01:20:02;1.70;;;1.60;;
15843;SDS011;50807;52.436;13.346;2023-12-20T01:20:34;1.35;;;1.27;;
15843;SDS011;50807;52.436;13.346;2023-12-20T01:21:05;1.60;;;1.50;;
15843;SDS011;50807;52.436;13.346;2023-12-20T01:21:36;1.33;;;1.23;;
15843;SDS011;50807;52.436;13.346;2023-12-20T01:22:08;1.50;;;1.40;;
15843;SDS011;50807;52.436;13.346;2023-12-20T01:22:38;1.50;;;1.40;;
15843;SDS011;50807;52.436;13.346;2023-12-20T01:23:10;1.77;;;1.67;;
15843;SDS011;50807;52.436;13.346;2023-12-20T01:23:41;1.50;;;1.40;;
15843;SDS011;50807;52.436;13.346;2023-12-20T01:24:12;1.52;;;1.42;;
15843;SDS011;50807;52.436;13.346;2023-12-20T01:24:43;1.53;;;1.43;;
15843;SDS011;50807;52.436;13.346;2023-12-20T01:25:15;1.60;;;1.50;;
15843;SDS011;50807;52.436;13.346;2023-12-20T01:25:46;1.27;;;1.17;;
15843;SDS011;50807;52.436;13.346;2023-12-20T01:26:19;1.42;;;1.33;;
15843;SDS011;50807;52.436;13.346;2023-12-20T01:26:50;1.07;;;1.07;;
15843;SDS011;50807;52.436;13.346;2023-12-20T01:27:21;1.53;;;1.43;;
15843;SDS011;50807;52.436;13.346;2023-12-20T01:27:52;1.33;;;1.23;;
15843;SDS011;50807;52.436;13.346;2023-12-20T01:28:23;1.50;;;1.40;;
15843;SDS011;50807;52.436;13.346;2023-12-20T01:28:54;1.60;;;1.50;;
15843;SDS011;50807;52.436;13.346;2023-12-20T01:29:25;1.63;;;1.53;;
15843;SDS011;50807;52.436;13.346;2023-12-20T01:29:55;1.50;;;1.40;;
15843;SDS011;50807;52.436;13.346;2023-12-20T01:30:27;1.60;;;1.50;;
15843;SDS011;50807;52.436;13.346;2023-12-20T01:30:58;1.57;;;1.47;;
15843;SDS011;50807;52.436;13.346;2023-12-20T01:31:28;1.50;;;1.40;;
15843;SDS011;50807;52.436;13.346;2023-12-20T01:31:59;1.50;;;1.40;;
15843;SDS011;50807;52.436;13.346;2023-12-20T01:32:31;1.60;;;1.50;;
15843;SDS011;50807;52.436;13.346;2023-12-20T01:33:02;1.40;;;1.30;;
15843;SDS011;50807;52.436;13.346;2023-12-20T01:33:33;2.30;;;1.20;;
15843;SDS011;50807;52.436;13.346;2023-12-20T01:34:03;1.43;;;1.33;;
15843;SDS011;50807;52.436;13.346;2023-12-20T01:34:35;1.35;;;1.25;;
15843;SDS011;50807;52.436;13.346;2023-12-20T01:35:06;1.20;;;1.20;;
15843;SDS011;50807;52.436;13.346;2023-12-20T01:35:37;1.52;;;1.42;;
15843;SDS011;50807;52.436;13.346;2023-12-20T01:36:08;1.50;;;1.40;;
15843;SDS011;50807;52.436;13.346;2023-12-20T01:36:41;1.20;;;1.20;;
15843;SDS011;50807;52.436;13.346;2023-12-20T01:37:12;1.40;;;1.30;;
15843;SDS011;50807;52.436;13.346;2023-12-20T01:37:43;1.48;;;1.38;;
15843;SDS011;50807;52.436;13.346;2023-12-20T01:38:14;1.27;;;1.23;;
15843;SDS011;50807;52.436;13.346;2023-12-20T01:38:48;1.40;;;1.30;;
15843;SDS011;50807;52.436;13.346;2023-12-20T01:39:19;1.47;;;1.37;;
15843;SDS011;50807;52.436;13.346;2023-12-20T01:39:50;1.43;;;1.33;;
15843;SDS011;50807;52.436;13.346;2023-12-20T01:40:23;1.27;;;1.17;;
15843;SDS011;50807;52.436;13.346;2023-12-20T01:40:55;1.48;;;1.38;;
15843;SDS011;50807;52.436;13.346;2023-12-20T01:41:25;1.40;;;1.30;;
15843;SDS011;50807;52.436;13.346;2023-12-20T01:41:56;1.13;;;1.13;;
15843;SDS011;50807;52.436;13.346;2023-12-20T01:42:27;2.30;;;1.20;;
15843;SDS011;50807;52.436;13.346;2023-12-20T01:42:59;1.30;;;1.30;;
15843;SDS011;50807;52.436;13.346;2023-12-20T01:43:31;1.67;;;1.58;;
15843;SDS011;50807;52.436;13.346;2023-12-20T01:44:02;1.40;;;1.30;;
15843;SDS011;50807;52.436;13.346;2023-12-20T01:44:33;1.30;;;1.30;;
15843;SDS011;50807;52.436;13.346;2023-12-20T01:45:05;1.48;;;1.38;;
15843;SDS011;50807;52.436;13.346;2023-12-20T01:45:36;1.60;;;1.50;;
15843;SDS011;50807;52.436;13.346;2023-12-20T01:46:07;1.30;;;1.20;;
15843;SDS011;50807;52.436;13.346;2023-12-20T01:46:38;1.47;;;1.37;;
15843;SDS011;50807;52.436;13.346;2023-12-20T01:47:10;1.10;;;1.10;;
15843;SDS011;50807;52.436;13.346;2023-12-20T01:47:42;1.20;;;1.10;;
15843;SDS011;50807;52.436;13.346;2023-12-20T01:48:13;1.10;;;1.10;;
15843;SDS011;50807;52.436;13.346;2023-12-20T01:48:46;1.40;;;1.30;;
15843;SDS011;50807;52.436;13.346;2023-12-20T01:49:18;1.10;;;1.10;;
15843;SDS011;50807;52.436;13.346;2023-12-20T01:49:49;1.15;;;1.15;;
15843;SDS011;50807;52.436;13.346;2023-12-20T01:50:20;1.48;;;1.38;;
15843;SDS011;50807;52.436;13.346;2023-12-20T01:50:52;1.25;;;1.20;;
15843;SDS011;50807;52.436;13.346;2023-12-20T01:51:25;1.50;;;1.20;;
15843;SDS011;50807;52.436;13.346;2023-12-20T01:51:57;1.05;;;1.05;;
15843;SDS011;50807;52.436;13.346;2023-12-20T01:52:28;1.40;;;1.30;;
15843;SDS011;50807;52.436;13.346;2023-12-20T01:52:58;1.30;;;1.20;;
15843;SDS011;50807;52.436;13.346;2023-12-20T01:53:31;1.00;;;1.00;;
15843;SDS011;50807;52.436;13.346;2023-12-20T01:54:03;1.60;;;1.50;;
15843;SDS011;50807;52.436;13.346;2023-12-20T01:54:34;0.95;;;0.95;;
15843;SDS011;50807;52.436;13.346;2023-12-20T01:55:06;1.20;;;1.20;;
15843;SDS011;50807;52.436;13.346;2023-12-20T01:55:44;1.10;;;1.10;;
15843;SDS011;50807;52.436;13.346;2023-12-20T01:56:17;1.40;;;1.30;;
15843;SDS011;50807;52.436;13.346;2023-12-20T01:56:48;1.67;;;1.40;;
15843;SDS011;50807;52.436;13.346;2023-12-20T01:57:20;1.00;;;1.00;;
15843;SDS011;50807;52.436;13.346;2023-12-20T01:57:51;1.20;;;1.20;;
15843;SDS011;50807;52.436;13.346;2023-12-20T01:58:22;1.70;;;1.60;;
15843;SDS011;50807;52.436;13.346;2023-12-20T01:58:55;1.52;;;1.40;;
15843;SDS011;50807;52.436;13.346;2023-12-20T01:59:27;1.35;;;1.30;;
15843;SDS011;50807;52.436;13.346;2023-12-20T01:59:59;1.40;;;1.30;;
15843;SDS011;50807;52.436;13.346;2023-12-20T02:00:30;1.20;;;1.20;;
15843;SDS011;50807;52.436;13.346;2023-12-20T02:01:01;1.40;;;1.30;;
15843;SDS011;50807;52.436;13.346;2023-12-20T02:01:33;1.40;;;1.30;;
15843;SDS011;50807;52.436;13.346;2023-12-20T02:02:04;1.05;;;1.05;;
15843;SDS011;50807;52.436;13.346;2023-12-20T02:02:36;1.38;;;1.27;;
15843;SDS011;50807;52.436;13.346;2023-12-20T02:03:09;1.58;;;1.48;;
15843;SDS011;50807;52.436;13.346;2023-12-20T02:03:40;1.25;;;1.25;;
15843;SDS011;50807;52.436;13.346;2023-12-20T02:04:12;1.27;;;1.20;;
15843;SDS011;50807;52.436;13.346;2023-12-20T02:04:43;1.27;;;1.20;;
15843;SDS011;50807;52.436;13.346;2023-12-20T02:05:14;1.20;;;1.20;;
15843;SDS011;50807;52.436;13.346;2023-12-20T02:05:47;1.20;;;1.20;;
15843;SDS011;50807;52.436;13.346;2023-12-20T02:06:18;1.13;;;1.13;;
15843;SDS011;50807;52.436;13.346;2023-12-20T02:06:52;1.40;;;1.30;;
15843;SDS011;50807;52.436;13.346;2023-12-20T02:07:23;1.38;;;1.27;;
15843;SDS011;50807;52.436;13.346;2023-12-20T02:07:55;1.27;;;1.20;;
15843;SDS011;50807;52.436;13.346;2023-12-20T02:08:26;1.10;;;1.10;;
15843;SDS011;50807;52.436;13.346;2023-12-20T02:08:57;1.20;;;1.17;;
15843;SDS011;50807;52.436;13.346;2023-12-20T02:09:29;1.42;;;1.10;;
15843;SDS011;50807;52.436;13.346;2023-12-20T02:10:01;1.33;;;1.23;;
15843;SDS011;50807;52.436;13.346;2023-12-20T02:10:32;1.50;;;1.40;;
15843;SDS011;50807;52.436;13.346;2023-12-20T02:11:04;1.67;;;1.58;;
15843;SDS011;50807;52.436;13.346;2023-12-20T02:11:36;1.13;;;1.13;;
15843;SDS011;50807;52.436;13.346;2023-12-20T02:12:08;1.60;;;1.50;;
15843;SDS011;50807;52.436;13.346;2023-12-20T02:12:39;1.50;;;1.40;;
15843;SDS011;50807;52.436;13.346;2023-12-20T02:13:10;1.35;;;1.35;;
15843;SDS011;50807;52.436;13.346;2023-12-20T02:13:42;1.50;;;1.40;;
15843;SDS011;50807;52.436;13.346;2023-12-20T02:14:12;1.53;;;1.43;;
15843;SDS011;50807;52.436;13.346;2023-12-20T02:14:43;1.37;;;1.27;;
15843;SDS011;50807;52.436;13.346;2023-12-20T02:15:14;1.43;;;1.40;;
15843;SDS011;50807;52.436;13.346;2023-12-20T02:15:46;1.40;;;1.30;;
15843;SDS011;50807;52.436;13.346;2023-12-20T02:16:17;1.50;;;1.40;;
15843;SDS011;50807;52.436;13.346;2023-12-20T02:16:47;1.47;;;1.40;;
15843;SDS011;50807;52.436;13.346;2023-12-20T02:17:18;1.60;;;1.50;;
15843;SDS011;50807;52.436;13.346;2023-12-20T02:17:51;1.60;;;1.50;;
15843;SDS011;50807;52.436;13.346;2023-12-20T02:18:21;1.80;;;1.70;;
15843;SDS011;50807;52.436;13.346;2023-12-20T02:18:52;1.57;;;1.47;;
15843;SDS011;50807;52.436;13.346;2023-12-20T02:19:23;1.48;;;1.45;;
15843;SDS011;50807;52.436;13.346;2023-12-20T02:19:54;1.63;;;1.53;;
15843;SDS011;50807;52.436;13.346;2023-12-20T02:20:26;1.40;;;1.30;;
15843;SDS011;50807;52.436;13.346;2023-12-20T02:20:57;2.07;;;1.97;;
15843;SDS011;50807;52.436;13.346;2023-12-20T02:21:32;1.70;;;1.60;;
15843;SDS011;50807;52.436;13.346;2023-12-20T02:22:08;1.58;;;1.48;;
15843;SDS011;50807;52.436;13.346;2023-12-20T02:22:40;1.60;;;1.50;;
15843;SDS011;50807;52.436;13.346;2023-12-20T02:23:11;1.57;;;1.47;;
15843;SDS011;50807;52.436;13.346;2023-12-20T02:23:41;1.90;;;1.80;;
15843;SDS011;50807;52.436;13.346;2023-12-20T02:24:12;1.50;;;1.40;;
15843;SDS011;50807;52.436;13.346;2023-12-20T02:24:44;1.45;;;1.35;;
15843;SDS011;50807;52.436;13.346;2023-12-20T02:25:14;1.47;;;1.37;;
15843;SDS011;50807;52.436;13.346;2023-12-20T02:25:45;1.80;;;1.70;;
15843;SDS011;50807;52.436;13.346;2023-12-20T02:26:16;1.50;;;1.40;;
15843;SDS011;50807;52.436;13.346;2023-12-20T02:26:48;1.63;;;1.52;;
15843;SDS011;50807;52.436;13.346;2023-12-20T02:27:20;1.42;;;1.33;;
15843;SDS011;50807;52.436;13.346;2023-12-20T02:27:52;1.52;;;1.42;;
15843;SDS011;50807;52.436;13.346;2023-12-20T02:28:24;1.83;;;1.27;;
15843;SDS011;50807;52.436;13.346;2023-12-20T02:28:54;1.70;;;1.60;;
15843;SDS011;50807;52.436;13.346;2023-12-20T02:29:26;1.50;;;1.40;;
15843;SDS011;50807;52.436;13.346;2023-12-20T02:29:57;1.70;;;1.60;;
15843;SDS011;50807;52.436;13.346;2023-12-20T02:30:28;1.65;;;1.55;;
15843;SDS011;50807;52.436;13.346;2023-12-20T02:30:59;1.53;;;1.43;;
15843;SDS011;50807;52.436;13.346;2023-12-20T02:31:30;1.80;;;1.70;;
15843;SDS011;50807;52.436;13.346;2023-12-20T02:32:02;1.65;;;1.55;;
15843;SDS011;50807;52.436;13.346;2023-12-20T02:32:33;1.50;;;1.40;;
15843;SDS011;50807;52.436;13.346;2023-12-20T02:33:04;1.83;;;1.53;;
15843;SDS011;50807;52.436;13.346;2023-12-20T02:33:42;1.70;;;1.60;;
15843;SDS011;50807;52.436;13.346;2023-12-20T02:34:13;1.83;;;1.73;;
15843;SDS011;50807;52.436;13.346;2023-12-20T02:34:43;1.90;;;1.80;;
15843;SDS011;50807;52.436;13.346;2023-12-20T02:35:16;1.73;;;1.63;;
15843;SDS011;50807;52.436;13.346;2023-12-20T02:35:48;1.88;;;1.77;;
15843;SDS011;50807;52.436;13.346;2023-12-20T02:36:18;1.80;;;1.70;;
15843;SDS011;50807;52.436;13.346;2023-12-20T02:36:50;2.00;;;1.90;;
15843;SDS011;50807;52.436;13.346;2023-12-20T02:37:21;2.00;;;1.90;;
15843;SDS011;50807;52.436;13.346;2023-12-20T02:37:53;1.88;;;1.77;;
15843;SDS011;50807;52.436;13.346;2023-12-20T02:38:24;1.80;;;1.70;;
15843;SDS011;50807;52.436;13.346;2023-12-20T02:38:54;1.93;;;1.83;;
15843;SDS011;50807;52.436;13.346;2023-12-20T02:39:25;1.90;;;1.80;;
15843;SDS011;50807;52.436;13.346;2023-12-20T02:39:57;2.08;;;1.90;;
15843;SDS011;50807;52.436;13.346;2023-12-20T02:40:28;2.10;;;2.00;;
15843;SDS011;50807;52.436;13.346;2023-12-20T02:40:58;2.07;;;1.97;;
15843;SDS011;50807;52.436;13.346;2023-12-20T02:41:29;2.00;;;1.90;;
15843;SDS011;50807;52.436;13.346;2023-12-20T02:42:01;1.90;;;1.80;;
15843;SDS011;50807;52.436;13.346;2023-12-20T02:42:31;2.23;;;2.13;;
15843;SDS011;50807;52.436;13.346;2023-12-20T02:43:02;1.90;;;1.80;;
15843;SDS011;50807;52.436;13.346;2023-12-20T02:43:33;2.20;;;2.10;;
15843;SDS011;50807;52.436;13.346;2023-12-20T02:44:04;2.40;;;2.30;;
15843;SDS011;50807;52.436;13.346;2023-12-20T02:44:36;2.20;;;2.10;;
15843;SDS011;50807;52.436;13.346;2023-12-20T02:45:07;2.33;;;2.23;;
15843;SDS011;50807;52.436;13.346;2023-12-20T02:45:38;2.40;;;2.30;;
15843;SDS011;50807;52.436;13.346;2023-12-20T02:46:09;2.57;;;2.37;;
15843;SDS011;50807;52.436;13.346;2023-12-20T02:46:40;2.50;;;2.30;;
15843;SDS011;50807;52.436;13.346;2023-12-20T02:47:11;2.90;;;2.23;;
15843;SDS011;50807;52.436;13.346;2023-12-20T02:47:42;2.40;;;2.20;;
15843;SDS011;50807;52.436;13.346;2023-12-20T02:48:12;2.10;;;2.00;;
15843;SDS011;50807;52.436;13.346;2023-12-20T02:48:44;2.00;;;1.90;;
15843;SDS011;50807;52.436;13.346;2023-12-20T02:49:15;2.50;;;2.30;;
15843;SDS011;50807;52.436;13.346;2023-12-20T02:49:46;2.77;;;2.20;;
15843;SDS011;50807;52.436;13.346;2023-12-20T02:50:16;2.73;;;2.53;;
15843;SDS011;50807;52.436;13.346;2023-12-20T02:50:48;2.55;;;2.45;;
15843;SDS011;50807;52.436;13.346;2023-12-20T02:51:19;2.50;;;2.40;;
15843;SDS011;50807;52.436;13.346;2023-12-20T02:51:51;2.40;;;2.20;;
15843;SDS011;50807;52.436;13.346;2023-12-20T02:52:22;2.47;;;2.28;;
15843;SDS011;50807;52.436;13.346;2023-12-20T02:52:54;2.40;;;2.20;;
15843;SDS011;50807;52.436;13.346;2023-12-20T02:53:25;2.60;;;2.40;;
15843;SDS011;50807;52.436;13.346;2023-12-20T02:53:56;2.37;;;2.20;;
15843;SDS011;50807;52.436;13.346;2023-12-20T02:54:26;3.33;;;2.50;;
15843;SDS011;50807;52.436;13.346;2023-12-20T02:54:57;3.00;;;2.80;;
15843;SDS011;50807;52.436;13.346;2023-12-20T02:55:29;2.75;;;2.55;;
15843;SDS011;50807;52.436;13.346;2023-12-20T02:55:59;2.53;;;2.43;;
15843;SDS011;50807;52.436;13.346;2023-12-20T02:56:30;2.47;;;2.30;;
15843;SDS011;50807;52.436;13.346;2023-12-20T02:57:02;2.60;;;2.40;;
15843;SDS011;50807;52.436;13.346;2023-12-20T02:57:34;2.97;;;2.78;;
15843;SDS011;50807;52.436;13.346;2023-12-20T02:58:06;2.92;;;2.72;;
15843;SDS011;50807;52.436;13.346;2023-12-20T02:58:37;2.80;;;2.60;;
15843;SDS011;50807;52.436;13.346;2023-12-20T02:59:08;2.90;;;2.70;;
15843;SDS011;50807;52.436;13.346;2023-12-20T02:59:40;2.78;;;2.58;;
15843;SDS011;50807;52.436;13.346;2023-12-20T03:00:11;2.90;;;2.70;;
15843;SDS011;50807;52.436;13.346;2023-12-20T03:00:42;2.80;;;2.60;;
15843;SDS011;50807;52.436;13.346;2023-12-20T03:01:13;2.78;;;2.58;;
15843;SDS011;50807;52.436;13.346;2023-12-20T03:01:45;3.00;;;2.80;;
15843;SDS011;50807;52.436;13.346;2023-12-20T03:02:16;3.27;;;3.07;;
15843;SDS011;50807;52.436;13.346;2023-12-20T03:02:47;2.70;;;2.60;;
15843;SDS011;50807;52.436;13.346;2023-12-20T03:03:17;2.90;;;2.70;;
15843;SDS011;50807;52.436;13.346;2023-12-20T03:03:49;2.70;;;2.50;;
15843;SDS011;50807;52.436;13.346;2023-12-20T03:04:20;3.10;;;2.90;;
15843;SDS011;50807;52.436;13.346;2023-12-20T03:04:51;2.73;;;2.63;;
15843;SDS011;50807;52.436;13.346;2023-12-20T03:05:21;2.90;;;2.70;;
15843;SDS011;50807;52.436;13.346;2023-12-20T03:05:53;2.63;;;2.42;;